Time;durP1;ratioP1;P1;durP2;ratioP2;P2;SDS_P1;SDS_P2;PMS_P1;PMS_P2;Temp;Humidity;BMP_temperature;BMP_pressure;BME280_temperature;BME280_humidity;BME280_pressure;Samples;Min_cycle;Max_cycle;Signal;HPM_P1;HPM_P2
2022/03/19 00:02:25;;;;;;;17.15;5.80;;;3.40;99.90;;;;;;4886558;29;20154;-45
2022/03/19 00:04:51;;;;;;;18.40;6.03;;;3.40;99.90;;;;;;4884998;29;20056;-45
2022/03/19 00:07:17;;;;;;;18.00;5.88;;;3.30;99.90;;;;;;4885132;29;20041;-45
2022/03/19 00:09:43;;;;;;;18.83;5.30;;;3.20;99.90;;;;;;4884995;29;20652;-46
2022/03/19 00:12:14;;;;;;;24.27;5.80;;;3.20;99.90;;;;;;4886367;29;20053;-48
2022/03/19 00:14:43;;;;;;;20.98;5.38;;;3.10;99.90;;;;;;4867672;29;20455;-46
2022/03/19 00:17:10;;;;;;;21.70;4.72;;;3.20;99.90;;;;;;4885728;29;20165;-44
2022/03/19 00:19:39;;;;;;;15.10;5.07;;;3.10;99.90;;;;;;4885030;29;20512;-45
2022/03/19 00:22:07;;;;;;;20.95;4.78;;;3.10;99.90;;;;;;4886272;29;20514;-47
2022/03/19 00:24:34;;;;;;;17.00;4.88;;;3.10;99.90;;;;;;4885576;29;20112;-45
2022/03/19 00:27:00;;;;;;;21.35;5.38;;;3.10;99.90;;;;;;4885913;29;20048;-44
2022/03/19 00:29:26;;;;;;;16.75;4.68;;;3.10;99.90;;;;;;4885473;29;20411;-45
2022/03/19 00:31:52;;;;;;;17.95;4.93;;;3.10;99.90;;;;;;4885383;29;20041;-46
2022/03/19 00:34:18;;;;;;;17.17;4.63;;;3.10;99.90;;;;;;4886251;29;20051;-44
2022/03/19 00:36:43;;;;;;;21.33;4.93;;;3.10;99.90;;;;;;4886529;29;20056;-45
2022/03/19 00:39:09;;;;;;;23.85;4.90;;;3.10;99.90;;;;;;4885487;29;20056;-47
2022/03/19 00:41:35;;;;;;;11.85;3.92;;;3.20;99.90;;;;;;4885733;29;20482;-45
2022/03/19 00:44:01;;;;;;;21.98;6.45;;;3.20;99.90;;;;;;4885346;29;20455;-46
2022/03/19 00:46:26;;;;;;;19.63;5.00;;;3.20;99.90;;;;;;4885617;29;20081;-45
2022/03/19 00:48:52;;;;;;;15.18;4.55;;;3.20;99.90;;;;;;4885215;29;20083;-45
2022/03/19 00:51:18;;;;;;;16.80;4.88;;;3.20;99.90;;;;;;4887866;29;20108;-47
2022/03/19 00:53:44;;;;;;;19.02;5.50;;;3.20;99.90;;;;;;4887741;29;20051;-45
2022/03/19 00:56:10;;;;;;;25.08;5.90;;;3.20;99.90;;;;;;4884799;29;20061;-49
2022/03/19 00:58:35;;;;;;;18.25;4.40;;;3.20;99.90;;;;;;4884882;29;20053;-47
2022/03/19 01:01:02;;;;;;;11.60;3.78;;;3.20;99.90;;;;;;4889257;29;20048;-45
2022/03/19 01:03:27;;;;;;;21.05;4.88;;;3.20;99.90;;;;;;4889178;29;20546;-47
2022/03/19 01:05:53;;;;;;;12.30;3.45;;;3.30;99.90;;;;;;4888762;29;20052;-44
2022/03/19 01:08:19;;;;;;;16.10;4.32;;;3.30;99.90;;;;;;4888829;29;20044;-45
2022/03/19 01:10:45;;;;;;;15.88;4.00;;;3.30;99.90;;;;;;4889041;29;20056;-43
2022/03/19 01:13:11;;;;;;;11.70;3.85;;;3.20;99.90;;;;;;4889494;29;20120;-48
2022/03/19 01:15:36;;;;;;;16.95;3.92;;;3.20;99.90;;;;;;4889770;29;20084;-45
2022/03/19 01:18:02;;;;;;;11.05;3.42;;;3.30;99.90;;;;;;4889230;29;20147;-46
2022/03/19 01:20:29;;;;;;;12.38;3.50;;;3.20;99.90;;;;;;4888269;29;20141;-43
2022/03/19 01:22:55;;;;;;;13.13;3.97;;;3.20;99.90;;;;;;4892086;29;20052;-45
2022/03/19 01:25:21;;;;;;;9.98;3.55;;;3.20;99.90;;;;;;4888802;29;20064;-44
2022/03/19 01:27:48;;;;;;;13.02;3.80;;;3.20;99.90;;;;;;4894674;29;20160;-45
2022/03/19 01:30:19;;;;;;;17.83;4.22;;;3.20;99.90;;;;;;4889147;29;20155;-45
2022/03/19 01:32:46;;;;;;;9.52;3.35;;;3.20;99.90;;;;;;4883082;29;20065;-46
2022/03/19 01:35:13;;;;;;;9.77;3.33;;;3.20;99.90;;;;;;4888217;29;20364;-45
2022/03/19 01:37:39;;;;;;;13.23;3.65;;;3.20;99.90;;;;;;4888564;29;20048;-46
2022/03/19 01:40:07;;;;;;;16.50;4.45;;;3.20;99.90;;;;;;4889093;29;20060;-47
2022/03/19 01:42:34;;;;;;;17.90;4.00;;;3.10;99.90;;;;;;4889144;29;20655;-46
2022/03/19 01:45:03;;;;;;;13.65;4.72;;;3.10;99.90;;;;;;4888717;29;20060;-44
2022/03/19 01:47:30;;;;;;;14.77;3.67;;;3.10;99.90;;;;;;4871522;29;20559;-45
2022/03/19 01:49:57;;;;;;;18.30;4.00;;;3.10;99.90;;;;;;4889122;29;20057;-46
2022/03/19 01:52:25;;;;;;;12.60;3.58;;;3.10;99.90;;;;;;4888926;29;20489;-46
2022/03/19 01:54:52;;;;;;;14.88;3.45;;;3.10;99.90;;;;;;4889438;29;20064;-45
2022/03/19 01:57:21;;;;;;;16.73;3.05;;;3.10;99.90;;;;;;4889758;29;20898;-44
2022/03/19 01:59:47;;;;;;;12.00;2.97;;;3.10;99.90;;;;;;4889279;29;20060;-49
2022/03/19 02:02:13;;;;;;;25.73;4.40;;;3.10;99.90;;;;;;4884676;29;20056;-45
2022/03/19 02:04:41;;;;;;;11.52;3.45;;;3.00;99.90;;;;;;4891221;29;20048;-46
2022/03/19 02:07:08;;;;;;;15.57;3.67;;;3.00;99.90;;;;;;4885555;29;20048;-47
2022/03/19 02:09:43;;;;;;;18.70;4.18;;;3.00;99.90;;;;;;4890988;29;20056;-46
2022/03/19 02:12:10;;;;;;;15.55;3.90;;;3.00;99.90;;;;;;4887184;29;20112;-47
2022/03/19 02:14:40;;;;;;;15.90;3.72;;;2.90;99.90;;;;;;4888145;29;20542;-48
2022/03/19 02:17:09;;;;;;;14.93;3.83;;;2.90;99.90;;;;;;4888555;29;20048;-46
2022/03/19 02:19:49;;;;;;;16.88;4.05;;;2.80;99.90;;;;;;4887176;29;20052;-46
2022/03/19 02:22:23;;;;;;;16.30;3.72;;;2.90;99.90;;;;;;4889872;29;20154;-49
2022/03/19 02:27:34;;;;;;;14.00;3.20;;;2.80;99.90;;;;;;4888189;29;20095;-44
2022/03/19 02:30:01;;;;;;;14.93;3.63;;;2.80;99.90;;;;;;4888429;29;20049;-44
2022/03/19 02:32:27;;;;;;;16.83;4.25;;;2.80;99.90;;;;;;4887477;29;20059;-45
2022/03/19 02:34:53;;;;;;;15.13;3.60;;;2.70;99.90;;;;;;4887058;29;20108;-43
2022/03/19 02:37:19;;;;;;;19.40;4.03;;;2.70;99.90;;;;;;4888004;29;20061;-45
2022/03/19 02:39:45;;;;;;;18.83;4.70;;;2.70;99.90;;;;;;4887150;29;20052;-43
2022/03/19 02:42:16;;;;;;;16.90;4.05;;;2.70;99.90;;;;;;4887653;29;20049;-46
2022/03/19 02:44:42;;;;;;;16.77;4.45;;;2.70;99.90;;;;;;4887190;29;20083;-46
2022/03/19 02:47:08;;;;;;;15.50;4.53;;;2.70;99.90;;;;;;4889347;29;20612;-46
2022/03/19 02:49:35;;;;;;;15.55;4.40;;;2.70;99.90;;;;;;4887360;29;20052;-46
2022/03/19 02:52:01;;;;;;;11.23;3.38;;;2.80;99.90;;;;;;4887383;29;20052;-45
2022/03/19 02:54:29;;;;;;;12.77;4.03;;;2.80;99.90;;;;;;4871394;29;20384;-44
2022/03/19 02:56:55;;;;;;;14.80;3.72;;;2.80;99.90;;;;;;4886972;29;20064;-46
2022/03/19 02:59:26;;;;;;;14.88;3.83;;;2.80;99.90;;;;;;4887089;29;20496;-46
2022/03/19 03:01:55;;;;;;;17.67;4.22;;;2.80;99.90;;;;;;4874218;29;20123;-43
2022/03/19 03:04:21;;;;;;;14.93;4.22;;;2.80;99.90;;;;;;4880287;29;20475;-44
2022/03/19 03:06:50;;;;;;;14.65;4.15;;;2.80;99.90;;;;;;4883629;29;20057;-45
2022/03/19 03:09:19;;;;;;;20.20;4.18;;;2.80;99.90;;;;;;4880747;29;20649;-48
2022/03/19 03:11:45;;;;;;;15.90;4.35;;;2.80;99.90;;;;;;4880953;29;20063;-46
2022/03/19 03:14:10;;;;;;;13.85;3.72;;;2.80;99.90;;;;;;4881261;29;20049;-45
2022/03/19 03:16:37;;;;;;;16.20;4.35;;;2.80;99.90;;;;;;4885645;29;20496;-46
2022/03/19 03:19:05;;;;;;;14.32;3.72;;;2.80;99.90;;;;;;4879047;29;20416;-47
2022/03/19 03:21:32;;;;;;;12.40;4.05;;;2.80;99.90;;;;;;4878930;29;20217;-46
2022/03/19 03:23:59;;;;;;;15.90;4.07;;;2.80;99.90;;;;;;4883292;29;20045;-46
2022/03/19 03:26:25;;;;;;;14.13;4.38;;;2.80;99.90;;;;;;4882099;29;20809;-44
2022/03/19 03:28:51;;;;;;;15.90;3.80;;;2.80;99.90;;;;;;4879171;29;20052;-46
2022/03/19 03:31:18;;;;;;;14.70;4.43;;;2.80;99.90;;;;;;4881554;29;20052;-48
2022/03/19 03:33:44;;;;;;;13.70;3.85;;;2.80;99.90;;;;;;4880547;29;20052;-45
2022/03/19 03:36:10;;;;;;;13.73;3.70;;;2.80;99.90;;;;;;4878242;29;20048;-45
2022/03/19 03:38:35;;;;;;;15.10;3.83;;;2.80;99.90;;;;;;4881799;29;20433;-49
2022/03/19 03:41:01;;;;;;;19.00;4.53;;;2.80;99.90;;;;;;4863291;29;20064;-47
2022/03/19 03:43:28;;;;;;;18.48;5.32;;;2.80;99.90;;;;;;4877617;29;20468;-47
2022/03/19 03:45:55;;;;;;;13.40;3.70;;;2.80;99.90;;;;;;4879518;29;20495;-45
2022/03/19 03:48:20;;;;;;;17.75;4.65;;;2.80;99.90;;;;;;4882134;29;20523;-44
2022/03/19 03:50:49;;;;;;;13.00;3.80;;;2.80;99.90;;;;;;4880270;29;20040;-45
2022/03/19 03:53:15;;;;;;;14.20;4.40;;;2.80;99.90;;;;;;4878536;29;20452;-43
2022/03/19 03:55:41;;;;;;;12.55;3.83;;;2.80;99.90;;;;;;4878818;29;20053;-44
2022/03/19 03:58:08;;;;;;;16.35;5.38;;;2.80;99.90;;;;;;4879098;29;20067;-45
2022/03/19 04:00:35;;;;;;;15.10;4.65;;;2.80;99.90;;;;;;4879664;29;20534;-44
2022/03/19 04:03:06;;;;;;;12.15;3.70;;;2.70;99.90;;;;;;4878688;29;20040;-45
2022/03/19 04:05:36;;;;;;;13.35;4.53;;;2.70;99.90;;;;;;4876025;29;20083;-45
2022/03/19 04:08:06;;;;;;;12.10;3.78;;;2.70;99.90;;;;;;4881526;29;20373;-44
2022/03/19 04:10:32;;;;;;;16.73;4.30;;;2.80;99.90;;;;;;4878366;29;20053;-45
2022/03/19 04:12:59;;;;;;;12.63;4.45;;;2.80;99.90;;;;;;4880320;29;20498;-45
2022/03/19 04:15:30;;;;;;;13.10;4.60;;;2.70;99.90;;;;;;4877333;29;20537;-45
2022/03/19 04:17:56;;;;;;;16.20;4.97;;;2.70;99.90;;;;;;4880671;29;20127;-45
2022/03/19 04:20:22;;;;;;;18.17;4.82;;;2.70;99.90;;;;;;4883478;29;20083;-46
2022/03/19 04:22:49;;;;;;;12.90;4.25;;;2.70;99.90;;;;;;4865934;29;20055;-43
2022/03/19 04:25:16;;;;;;;13.70;4.80;;;2.70;99.90;;;;;;4882637;29;20091;-43
2022/03/19 04:27:43;;;;;;;13.18;4.47;;;2.70;99.90;;;;;;4883323;29;20372;-47
2022/03/19 04:30:13;;;;;;;14.95;4.43;;;2.70;99.90;;;;;;4882753;29;20631;-44
2022/03/19 04:32:44;;;;;;;16.75;4.45;;;2.70;99.90;;;;;;4862616;29;20083;-45
2022/03/19 04:38:08;;;;;;;20.23;6.35;;;2.70;99.90;;;;;;4844026;29;20529;-42
2022/03/19 04:40:35;;;;;;;21.02;5.35;;;2.70;99.90;;;;;;4843473;29;20062;-41
2022/03/19 04:43:01;;;;;;;14.95;4.28;;;2.70;99.90;;;;;;4844312;29;20061;-43
2022/03/19 04:45:27;;;;;;;15.50;4.53;;;2.60;99.90;;;;;;4843298;29;20469;-43
2022/03/19 04:47:53;;;;;;;20.52;5.78;;;2.60;99.90;;;;;;4842630;29;20045;-43
2022/03/19 04:50:19;;;;;;;21.17;6.03;;;2.60;99.90;;;;;;4843765;29;20629;-42
2022/03/19 04:52:46;;;;;;;16.40;5.53;;;2.60;99.90;;;;;;4844073;29;20049;-44
2022/03/19 04:55:12;;;;;;;17.88;5.00;;;2.60;99.90;;;;;;4842961;29;20085;-44
2022/03/19 04:57:38;;;;;;;14.98;5.53;;;2.50;99.90;;;;;;4843324;29;20490;-44
2022/03/19 05:00:06;;;;;;;16.77;6.05;;;2.50;99.90;;;;;;4843605;29;20050;-43
2022/03/19 05:02:32;;;;;;;19.08;5.90;;;2.40;99.90;;;;;;4842658;29;20053;-42
2022/03/19 05:04:58;;;;;;;16.48;5.68;;;2.40;99.90;;;;;;4843705;29;20400;-44
2022/03/19 05:07:27;;;;;;;24.30;6.15;;;2.40;99.90;;;;;;4842743;29;20046;-45
2022/03/19 05:12:43;;;;;;;19.52;6.95;;;2.40;99.90;;;;;;4842830;29;20527;-41
2022/03/19 05:15:15;;;;;;;16.73;6.35;;;2.40;99.90;;;;;;4862047;29;20203;-42
2022/03/19 05:17:42;;;;;;;15.65;5.43;;;2.40;99.90;;;;;;4878320;29;20659;-43
2022/03/19 05:20:08;;;;;;;19.08;6.88;;;2.40;99.90;;;;;;4881344;29;20048;-44
2022/03/19 05:22:40;;;;;;;16.30;5.22;;;2.40;99.90;;;;;;4883477;29;20097;-42
2022/03/19 05:25:07;;;;;;;19.23;6.32;;;2.40;99.90;;;;;;4868528;29;20567;-44
2022/03/19 05:27:33;;;;;;;16.10;5.85;;;2.40;99.90;;;;;;4876333;29;20060;-46
2022/03/19 05:29:59;;;;;;;14.60;5.50;;;2.40;99.90;;;;;;4861340;29;20056;-42
2022/03/19 05:32:25;;;;;;;17.70;5.45;;;2.40;99.90;;;;;;4878585;29;20301;-44
2022/03/19 05:34:53;;;;;;;17.95;6.50;;;2.40;99.90;;;;;;4879141;29;20048;-43
2022/03/19 05:37:18;;;;;;;17.92;6.82;;;2.50;99.90;;;;;;4881331;29;20059;-42
2022/03/19 05:39:44;;;;;;;16.65;6.32;;;2.40;99.90;;;;;;4881784;29;20834;-45
2022/03/19 05:42:11;;;;;;;17.00;6.45;;;2.50;99.90;;;;;;4876776;29;20037;-43
2022/03/19 05:44:37;;;;;;;15.80;6.82;;;2.50;99.90;;;;;;4879059;29;20052;-42
2022/03/19 05:47:04;;;;;;;16.10;6.45;;;2.50;99.90;;;;;;4884887;29;20053;-42
2022/03/19 05:49:30;;;;;;;14.57;6.07;;;2.50;99.90;;;;;;4868622;29;20155;-43
2022/03/19 05:51:57;;;;;;;17.38;6.20;;;2.50;99.90;;;;;;4881358;29;20674;-43
2022/03/19 05:54:24;;;;;;;11.73;6.22;;;2.50;99.90;;;;;;4883447;29;20593;-43
2022/03/19 05:56:51;;;;;;;20.83;6.32;;;2.50;99.90;;;;;;4883549;29;20465;-45
2022/03/19 05:59:16;;;;;;;18.73;6.57;;;2.50;99.90;;;;;;4883524;29;20078;-44
2022/03/19 06:01:42;;;;;;;17.58;6.18;;;2.60;99.90;;;;;;4884840;29;20052;-42
2022/03/19 06:04:08;;;;;;;19.08;6.55;;;2.60;99.90;;;;;;4882746;29;20473;-41
2022/03/19 06:06:34;;;;;;;18.23;5.78;;;2.70;99.90;;;;;;4884626;29;20054;-42
2022/03/19 06:09:00;;;;;;;16.02;5.82;;;2.80;99.90;;;;;;4881882;29;20044;-44
2022/03/19 06:11:26;;;;;;;21.67;7.43;;;2.90;99.90;;;;;;4885624;29;20060;-43
2022/03/19 06:13:52;;;;;;;17.55;6.43;;;3.10;99.90;;;;;;4882246;29;20428;-44
2022/03/19 06:16:18;;;;;;;17.73;6.20;;;3.50;99.90;;;;;;4884767;29;20415;-43
2022/03/19 06:18:46;;;;;;;17.63;5.93;;;3.90;99.90;;;;;;4882289;29;20060;-45
2022/03/19 06:21:12;;;;;;;15.43;5.75;;;4.50;99.90;;;;;;4879739;29;20059;-43
2022/03/19 06:23:38;;;;;;;16.70;5.80;;;5.30;99.90;;;;;;4883607;29;20423;-43
2022/03/19 06:26:04;;;;;;;15.05;5.07;;;6.10;99.90;;;;;;4883856;29;20048;-44
2022/03/19 06:28:30;;;;;;;12.98;5.10;;;6.90;99.90;;;;;;4881694;29;20455;-45
2022/03/19 06:30:55;;;;;;;15.93;5.20;;;7.60;99.90;;;;;;4883365;29;20497;-44
2022/03/19 06:33:21;;;;;;;17.08;5.05;;;8.20;99.90;;;;;;4881178;29;20504;-42
2022/03/19 06:38:31;;;;;;;13.40;4.78;;;9.20;99.90;;;;;;4881389;29;20091;-44
2022/03/19 06:40:59;;;;;;;12.35;4.50;;;9.60;99.90;;;;;;4882028;29;20105;-44
2022/03/19 06:43:26;;;;;;;15.15;5.60;;;10.10;99.90;;;;;;4882211;29;20040;-41
2022/03/19 06:45:54;;;;;;;14.52;4.65;;;10.40;99.90;;;;;;4883189;29;20063;-43
2022/03/19 06:48:20;;;;;;;15.55;6.15;;;10.70;99.90;;;;;;4880086;29;20049;-44
2022/03/19 06:50:46;;;;;;;10.85;4.80;;;11.10;99.90;;;;;;4885032;29;20052;-44
2022/03/19 06:53:12;;;;;;;9.68;4.15;;;11.00;99.90;;;;;;4882406;29;20519;-45
2022/03/19 06:55:38;;;;;;;14.15;4.93;;;10.50;99.90;;;;;;4886274;29;20448;-45
2022/03/19 06:58:03;;;;;;;16.10;5.45;;;9.90;99.90;;;;;;4880155;29;20056;-43
2022/03/19 07:00:29;;;;;;;11.30;4.90;;;9.40;99.90;;;;;;4879069;29;20049;-44
2022/03/19 07:02:55;;;;;;;14.80;5.30;;;9.00;99.90;;;;;;4886140;29;20053;-43
2022/03/19 07:05:22;;;;;;;16.17;5.40;;;8.80;99.90;;;;;;4888748;29;20555;-43
2022/03/19 07:07:52;;;;;;;15.95;5.00;;;8.50;99.90;;;;;;4886734;29;20104;-44
2022/03/19 07:10:19;;;;;;;14.30;4.72;;;8.40;99.90;;;;;;4886456;29;20416;-44
2022/03/19 07:12:53;;;;;;;12.48;5.03;;;8.30;99.90;;;;;;4870161;29;20052;-44
2022/03/19 07:15:24;;;;;;;14.02;5.15;;;8.20;99.90;;;;;;4886613;29;20484;-43
2022/03/19 07:17:50;;;;;;;13.85;4.80;;;8.20;99.90;;;;;;4886613;29;20408;-46
2022/03/19 07:20:17;;;;;;;11.70;4.80;;;8.20;99.90;;;;;;4886562;29;20518;-44
2022/03/19 07:22:48;;;;;;;13.80;5.07;;;8.10;99.90;;;;;;4885902;29;20075;-44
2022/03/19 07:25:15;;;;;;;13.90;4.68;;;8.10;99.90;;;;;;4881229;29;20052;-44
2022/03/19 07:27:41;;;;;;;16.10;5.18;;;8.00;99.90;;;;;;4884272;29;20124;-44
2022/03/19 07:30:07;;;;;;;14.95;5.47;;;8.00;99.90;;;;;;4887388;29;20519;-43
2022/03/19 07:32:34;;;;;;;18.13;5.18;;;8.00;99.90;;;;;;4886388;29;20742;-44
2022/03/19 07:35:00;;;;;;;16.58;5.80;;;8.10;99.90;;;;;;4886991;29;20044;-44
2022/03/19 07:37:31;;;;;;;19.67;6.07;;;8.20;99.90;;;;;;4886299;29;20481;-44
2022/03/19 07:40:01;;;;;;;16.80;6.18;;;8.20;99.90;;;;;;4886755;29;20063;-45
2022/03/19 07:42:27;;;;;;;15.90;5.63;;;8.20;99.90;;;;;;4886293;29;20048;-44
2022/03/19 07:44:56;;;;;;;11.68;4.88;;;8.20;99.90;;;;;;4885738;29;20398;-43
2022/03/19 07:47:22;;;;;;;15.77;5.43;;;8.30;99.90;;;;;;4885660;29;20575;-42
2022/03/19 07:49:48;;;;;;;11.10;5.18;;;8.40;99.90;;;;;;4886744;29;20044;-44
2022/03/19 07:52:13;;;;;;;17.75;5.88;;;8.30;99.90;;;;;;4885498;29;20473;-45
2022/03/19 07:54:39;;;;;;;15.15;5.25;;;8.50;99.90;;;;;;4885534;29;20540;-45
2022/03/19 07:57:07;;;;;;;18.90;6.10;;;8.40;99.90;;;;;;4885526;29;20056;-45
2022/03/19 07:59:33;;;;;;;16.20;6.30;;;8.40;99.90;;;;;;4887641;29;20475;-45
2022/03/19 08:01:59;;;;;;;18.50;5.78;;;8.50;99.90;;;;;;4887061;29;20100;-45
2022/03/19 08:04:26;;;;;;;19.52;6.45;;;8.40;99.90;;;;;;4890133;29;20546;-44
2022/03/19 08:06:55;;;;;;;14.55;5.65;;;8.30;99.90;;;;;;4886452;29;20056;-43
2022/03/19 08:09:23;;;;;;;19.65;6.43;;;8.40;99.90;;;;;;4886804;29;20045;-44
2022/03/19 08:11:50;;;;;;;12.60;5.15;;;8.50;99.90;;;;;;4869431;29;20060;-46
2022/03/19 08:14:17;;;;;;;16.08;6.97;;;8.50;99.90;;;;;;4885331;29;20461;-46
2022/03/19 08:16:45;;;;;;;14.30;5.72;;;8.60;99.90;;;;;;4885230;29;20047;-46
2022/03/19 08:19:14;;;;;;;15.13;5.40;;;8.60;99.90;;;;;;4868713;29;20092;-43
2022/03/19 08:21:45;;;;;;;17.58;5.82;;;8.60;99.90;;;;;;4882606;29;20137;-44
2022/03/19 08:24:12;;;;;;;16.50;6.43;;;8.60;99.90;;;;;;4891425;29;20053;-44
2022/03/19 08:26:38;;;;;;;10.68;5.03;;;8.70;99.90;;;;;;4891088;29;20052;-44
2022/03/19 08:29:05;;;;;;;17.88;6.05;;;8.80;99.90;;;;;;4886317;29;20055;-44
2022/03/19 08:31:31;;;;;;;14.45;5.68;;;8.90;99.90;;;;;;4868981;29;20051;-47
2022/03/19 08:33:57;;;;;;;16.73;6.55;;;8.90;99.90;;;;;;4884742;29;20563;-44
2022/03/19 08:36:24;;;;;;;15.32;5.88;;;9.00;99.90;;;;;;4885390;29;20499;-44
2022/03/19 08:41:38;;;;;;;24.92;5.85;;;8.90;99.90;;;;;;4881600;29;20048;-45
2022/03/19 08:44:05;;;;;;;17.23;5.88;;;9.00;99.90;;;;;;4886903;29;20138;-46
2022/03/19 08:46:31;;;;;;;20.10;5.43;;;9.00;99.90;;;;;;4885106;29;20053;-45
2022/03/19 08:48:56;;;;;;;12.85;5.35;;;9.00;99.90;;;;;;4885962;29;20507;-46
2022/03/19 08:51:40;;;;;;;14.30;5.50;;;9.00;99.90;;;;;;4885972;29;20074;-44
2022/03/19 08:54:15;;;;;;;16.73;5.35;;;9.10;99.90;;;;;;4876829;29;20104;-48
2022/03/19 08:56:42;;;;;;;13.25;4.43;;;9.10;99.90;;;;;;4884749;29;20512;-48
2022/03/19 08:59:09;;;;;;;21.67;5.70;;;9.10;99.90;;;;;;4884203;29;20057;-46
2022/03/19 09:01:36;;;;;;;13.80;4.97;;;9.10;99.90;;;;;;4885191;29;20607;-45
2022/03/19 09:04:03;;;;;;;13.20;5.10;;;9.10;99.90;;;;;;4892544;29;20132;-43
2022/03/19 09:06:29;;;;;;;14.65;4.95;;;9.20;99.90;;;;;;4884995;29;20376;-44
2022/03/19 09:08:54;;;;;;;13.13;5.38;;;9.30;99.90;;;;;;4877994;29;20056;-44
2022/03/19 09:11:21;;;;;;;16.73;4.47;;;9.40;99.90;;;;;;4887250;29;20049;-49
2022/03/19 09:13:48;;;;;;;19.73;6.53;;;9.50;99.90;;;;;;4868466;29;20085;-44
2022/03/19 09:16:15;;;;;;;14.93;4.43;;;9.40;99.90;;;;;;4893460;29;20442;-47
2022/03/19 09:18:41;;;;;;;13.88;4.47;;;9.50;99.90;;;;;;4896103;29;20048;-48
2022/03/19 09:21:07;;;;;;;14.27;4.47;;;9.60;99.90;;;;;;4897507;29;20605;-48
2022/03/19 09:23:33;;;;;;;15.07;4.63;;;9.60;99.90;;;;;;4896846;29;20048;-52
2022/03/19 09:25:59;;;;;;;12.52;4.13;;;9.60;99.90;;;;;;4889876;29;20048;-46
2022/03/19 09:28:25;;;;;;;12.80;4.40;;;9.60;99.90;;;;;;4892231;29;20508;-46
2022/03/19 09:30:51;;;;;;;14.85;5.07;;;9.60;99.90;;;;;;4882979;29;20098;-45
2022/03/19 09:33:18;;;;;;;11.18;4.03;;;9.70;99.90;;;;;;4894512;29;20455;-45
2022/03/19 09:35:45;;;;;;;12.93;4.43;;;9.80;99.90;;;;;;4900615;29;20459;-45
2022/03/19 09:38:13;;;;;;;18.92;4.63;;;9.90;99.90;;;;;;4896776;29;20515;-45
2022/03/19 09:40:39;;;;;;;11.25;3.85;;;9.90;99.90;;;;;;4896777;29;20582;-44
2022/03/19 09:43:05;;;;;;;23.15;4.85;;;10.00;99.90;;;;;;4896226;29;20505;-46
2022/03/19 09:45:30;;;;;;;11.52;3.88;;;10.10;99.90;;;;;;4883034;29;20052;-46
2022/03/19 09:47:56;;;;;;;15.55;4.07;;;10.20;99.90;;;;;;4893618;29;20048;-46
2022/03/19 09:50:23;;;;;;;13.27;4.20;;;10.30;99.90;;;;;;4891836;29;20090;-45
2022/03/19 09:52:57;;;;;;;10.98;4.07;;;10.30;99.90;;;;;;4868379;29;20188;-50
2022/03/19 09:55:26;;;;;;;12.82;3.90;;;10.40;99.90;;;;;;4895689;29;20056;-48
2022/03/19 09:57:54;;;;;;;8.77;3.83;;;10.50;99.90;;;;;;4896292;29;20079;-47
2022/03/19 10:00:22;;;;;;;10.63;3.47;;;10.60;99.90;;;;;;4894014;29;20440;-46
2022/03/19 10:02:57;;;;;;;10.90;3.70;;;10.60;99.90;;;;;;4894558;29;20060;-46
2022/03/19 10:10:56;;;;;;;10.43;2.97;;;10.50;99.90;;;;;;4890881;29;20504;-46
2022/03/19 10:13:25;;;;;;;10.90;3.70;;;10.50;99.90;;;;;;4896819;29;20121;-50
2022/03/19 10:15:53;;;;;;;11.05;2.97;;;10.50;99.90;;;;;;4898008;29;20058;-45
2022/03/19 10:18:29;;;;;;;9.55;3.35;;;10.60;99.90;;;;;;4896808;29;20059;-47
2022/03/19 10:20:58;;;;;;;11.30;3.30;;;10.70;99.90;;;;;;4895562;29;20048;-47
2022/03/19 10:23:36;;;;;;;9.25;2.85;;;10.70;99.90;;;;;;4896004;29;20400;-46
2022/03/19 10:26:02;;;;;;;8.88;3.38;;;10.90;99.90;;;;;;4896514;29;20044;-47
2022/03/19 10:28:33;;;;;;;9.93;3.50;;;11.00;99.90;;;;;;4892555;29;20516;-46
2022/03/19 10:30:59;;;;;;;11.00;3.72;;;10.90;99.90;;;;;;4875330;29;20564;-48
2022/03/19 10:33:33;;;;;;;17.00;3.75;;;11.00;99.90;;;;;;4884126;29;20076;-46
2022/03/19 10:36:10;;;;;;;12.30;3.03;;;11.00;99.90;;;;;;4899269;29;20049;-48
2022/03/19 10:38:46;;;;;;;8.32;3.00;;;11.10;99.90;;;;;;4896295;29;20230;-47
2022/03/19 10:41:17;;;;;;;9.07;3.05;;;11.10;99.90;;;;;;4896234;29;21774;-47
2022/03/19 10:43:45;;;;;;;11.80;3.22;;;11.20;99.90;;;;;;4890931;29;20448;-49
2022/03/19 10:46:11;;;;;;;6.80;2.75;;;11.30;99.90;;;;;;4888337;29;20056;-47
2022/03/19 10:48:37;;;;;;;11.77;3.13;;;11.30;99.90;;;;;;4894158;29;20555;-51
2022/03/19 10:51:10;;;;;;;7.20;2.17;;;11.30;98.80;;;;;;4859857;29;20083;-46
2022/03/19 10:53:38;;;;;;;8.93;3.05;;;11.30;99.50;;;;;;4885406;29;20526;-46
2022/03/19 10:56:06;;;;;;;5.70;2.60;;;11.40;99.60;;;;;;4886680;29;20546;-48
2022/03/19 10:58:33;;;;;;;11.90;2.95;;;11.40;99.10;;;;;;4888835;29;20504;-49
2022/03/19 11:01:01;;;;;;;11.50;2.80;;;11.40;97.10;;;;;;4887992;29;20056;-47
2022/03/19 11:03:29;;;;;;;8.90;2.70;;;11.40;96.80;;;;;;4886545;29;20830;-47
2022/03/19 11:06:01;;;;;;;9.05;2.67;;;11.40;97.10;;;;;;4889511;29;20586;-47
2022/03/19 11:08:28;;;;;;;8.80;2.40;;;11.50;97.60;;;;;;4895873;29;20710;-47
2022/03/19 11:10:57;;;;;;;8.43;3.08;;;11.50;97.20;;;;;;4887962;29;20456;-46
2022/03/19 11:13:27;;;;;;;10.77;2.63;;;11.50;96.60;;;;;;4894792;29;20606;-47
2022/03/19 11:15:55;;;;;;;7.35;2.25;;;11.60;98.00;;;;;;4879736;29;20101;-46
2022/03/19 11:18:22;;;;;;;9.02;2.90;;;11.60;97.10;;;;;;4877006;29;20443;-50
2022/03/19 11:20:49;;;;;;;8.15;2.58;;;11.50;96.30;;;;;;4892980;29;20057;-47
2022/03/19 11:23:21;;;;;;;13.10;3.38;;;11.60;97.50;;;;;;4891468;29;20594;-46
2022/03/19 11:25:53;;;;;;;8.52;3.70;;;11.60;97.30;;;;;;4891475;29;20514;-47
2022/03/19 11:28:21;;;;;;;14.55;3.13;;;11.70;98.40;;;;;;4888052;29;20059;-48
2022/03/19 11:31:09;;;;;;;9.43;2.97;;;11.80;97.50;;;;;;4892498;29;20587;-48
2022/03/19 11:33:36;;;;;;;8.82;2.85;;;11.80;97.00;;;;;;4893100;29;20048;-50
2022/03/19 11:36:10;;;;;;;6.97;2.80;;;11.90;98.10;;;;;;4894178;29;20235;-47
2022/03/19 11:38:51;;;;;;;7.57;2.70;;;11.90;96.90;;;;;;4893568;29;20104;-47
2022/03/19 11:41:25;;;;;;;8.52;2.22;;;11.90;95.90;;;;;;4895633;29;20059;-52
2022/03/19 11:44:18;;;;;;;7.10;2.38;;;11.90;96.00;;;;;;4891443;29;20096;-47
2022/03/19 11:47:05;;;;;;;6.88;2.40;;;12.00;95.40;;;;;;4885759;29;20063;-47
2022/03/19 11:49:45;;;;;;;14.38;2.75;;;12.00;95.00;;;;;;4892885;29;20470;-49
2022/03/19 11:52:14;;;;;;;7.30;2.80;;;12.10;95.10;;;;;;4893172;29;20111;-48
2022/03/19 11:55:05;;;;;;;9.48;2.17;;;12.10;94.70;;;;;;4891875;29;20109;-47
2022/03/19 11:57:46;;;;;;;5.95;2.00;;;12.10;93.40;;;;;;4882586;29;20092;-49
2022/03/19 12:00:16;;;;;;;9.13;2.90;;;12.00;93.20;;;;;;4892311;29;20077;-53
2022/03/19 12:03:07;;;;;;;9.50;2.60;;;12.00;93.60;;;;;;4888340;29;20094;-52
2022/03/19 12:05:35;;;;;;;6.00;2.40;;;12.10;95.00;;;;;;4889400;29;20052;-49
2022/03/19 12:08:09;;;;;;;4.25;2.05;;;12.20;93.70;;;;;;4869476;29;20099;-49
2022/03/19 12:10:55;;;;;;;6.28;2.03;;;12.10;92.30;;;;;;4888916;29;20128;-49
2022/03/19 12:13:26;;;;;;;8.27;2.65;;;12.20;92.80;;;;;;4890868;29;20052;-47
2022/03/19 12:15:53;;;;;;;4.93;2.00;;;12.10;91.30;;;;;;4885994;29;20044;-48
2022/03/19 12:18:34;;;;;;;6.03;2.55;;;12.10;91.90;;;;;;4886443;29;20400;-47
2022/03/19 12:21:10;;;;;;;8.30;3.03;;;12.10;92.40;;;;;;4888152;29;20548;-47
2022/03/19 12:24:01;;;;;;;7.90;2.80;;;12.20;92.90;;;;;;4882848;29;20061;-47
2022/03/19 12:26:42;;;;;;;5.93;1.95;;;12.20;93.10;;;;;;4850888;29;20124;-50
2022/03/19 12:29:10;;;;;;;5.63;2.10;;;12.30;93.90;;;;;;4854041;29;20069;-46
2022/03/19 12:31:48;;;;;;;8.23;2.22;;;12.40;93.50;;;;;;4854314;29;20079;-47
2022/03/19 12:34:19;;;;;;;8.25;2.92;;;12.40;92.20;;;;;;4857554;29;20160;-50
2022/03/19 12:36:47;;;;;;;10.00;2.53;;;12.40;91.70;;;;;;4858769;29;20556;-50
2022/03/19 12:39:14;;;;;;;7.80;2.17;;;12.30;91.30;;;;;;4858514;29;20656;-49
2022/03/19 12:41:41;;;;;;;3.92;2.17;;;12.30;92.20;;;;;;4860740;29;20082;-50
2022/03/19 12:44:25;;;;;;;7.47;2.30;;;12.30;91.90;;;;;;4858851;29;20065;-48
2022/03/19 12:46:57;;;;;;;6.03;2.67;;;12.30;92.10;;;;;;4859523;29;20092;-50
2022/03/19 12:49:23;;;;;;;8.23;2.38;;;12.30;92.50;;;;;;4847215;29;20409;-48
2022/03/19 12:51:50;;;;;;;5.93;2.55;;;12.30;92.60;;;;;;4860620;29;20056;-50
2022/03/19 12:54:29;;;;;;;8.20;2.60;;;12.40;95.40;;;;;;4859193;29;20044;-48
2022/03/19 12:57:10;;;;;;;4.55;2.33;;;12.40;94.30;;;;;;4863363;29;20147;-45
2022/03/19 12:59:37;;;;;;;6.35;3.00;;;12.40;94.80;;;;;;4857199;29;20052;-49
2022/03/19 13:02:03;;;;;;;8.30;2.90;;;12.40;95.10;;;;;;4860846;29;20502;-46
2022/03/19 13:04:30;;;;;;;6.13;3.55;;;12.40;94.40;;;;;;4887234;29;20059;-46
2022/03/19 13:06:57;;;;;;;7.15;2.08;;;12.40;94.30;;;;;;4897606;29;20404;-47
2022/03/19 13:09:35;;;;;;;7.75;2.38;;;12.40;95.50;;;;;;4892195;29;20056;-46
2022/03/19 13:12:05;;;;;;;5.03;2.30;;;12.40;95.20;;;;;;4888798;29;20062;-46